createdAt,value
2022-08-17T00:00:34.682Z,15.40
2022-08-17T00:03:04.681Z,14.77
2022-08-17T00:05:34.904Z,15.02
2022-08-17T00:08:02.186Z,15.10
2022-08-17T00:10:29.547Z,14.70
2022-08-17T00:12:59.591Z,14.13
2022-08-17T00:15:26.716Z,15.07
2022-08-17T00:17:53.866Z,15.52
2022-08-17T00:20:23.446Z,14.73
2022-08-17T00:23:09.817Z,14.90
2022-08-17T00:25:37.155Z,14.95
2022-08-17T00:28:04.670Z,14.18
2022-08-17T00:30:51.195Z,14.93
2022-08-17T00:33:31.117Z,15.20
2022-08-17T00:35:59.547Z,14.63
2022-08-17T00:38:28.459Z,14.75
2022-08-17T00:41:02.440Z,14.93
2022-08-17T00:43:29.393Z,14.85
2022-08-17T00:45:57.585Z,15.73
2022-08-17T00:48:29.188Z,15.70
2022-08-17T00:51:44.449Z,14.73
2022-08-17T00:54:16.083Z,15.00
2022-08-17T00:57:07.328Z,14.85
2022-08-17T01:00:00.591Z,14.70
2022-08-17T01:02:35.025Z,14.88
2022-08-17T01:05:23.751Z,14.57
2022-08-17T01:07:53.834Z,14.25
2022-08-17T01:10:58.730Z,14.82
2022-08-17T01:13:15.117Z,14.68
2022-08-17T01:15:50.612Z,14.75
2022-08-17T01:18:17.760Z,14.65
2022-08-17T01:20:49.581Z,14.68
2022-08-17T01:23:21.012Z,14.77
2022-08-17T01:25:58.423Z,14.40
2022-08-17T01:28:36.177Z,14.45
2022-08-17T01:31:15.442Z,14.75
2022-08-17T01:33:42.746Z,14.40
2022-08-17T01:36:09.817Z,14.25
2022-08-17T01:38:38.566Z,14.43
2022-08-17T01:41:13.780Z,14.43
2022-08-17T01:43:53.987Z,14.45
2022-08-17T01:46:28.752Z,14.60
2022-08-17T01:48:57.701Z,14.77
2022-08-17T01:51:33.107Z,14.98
2022-08-17T01:54:11.981Z,14.73
2022-08-17T01:56:42.291Z,14.80
2022-08-17T01:59:09.498Z,14.43
2022-08-17T02:01:37.207Z,14.50
2022-08-17T02:04:07.036Z,14.88
2022-08-17T02:06:44.846Z,14.27
2022-08-17T02:09:25.614Z,14.73
2022-08-17T02:11:54.932Z,15.25
2022-08-17T02:14:24.224Z,14.35
2022-08-17T02:16:51.388Z,14.52
2022-08-17T02:19:18.876Z,14.55
2022-08-17T02:21:48.615Z,14.55
2022-08-17T02:25:01.219Z,14.32
2022-08-17T02:27:16.223Z,14.40
2022-08-17T02:29:43.195Z,14.38
2022-08-17T02:32:27.477Z,14.52
2022-08-17T02:34:59.110Z,14.77
2022-08-17T02:37:30.394Z,14.60
2022-08-17T02:39:58.697Z,14.23
2022-08-17T02:42:35.833Z,13.80
2022-08-17T02:45:06.061Z,14.35
2022-08-17T02:47:33.995Z,13.98
2022-08-17T02:50:00.987Z,13.95
2022-08-17T02:52:43.729Z,13.88
2022-08-17T02:55:30.768Z,14.02
2022-08-17T02:57:57.778Z,14.02
2022-08-17T03:00:29.147Z,13.77
2022-08-17T03:02:57.146Z,13.82
2022-08-17T03:05:26.335Z,14.30
2022-08-17T03:07:53.735Z,13.90
2022-08-17T03:10:22.026Z,14.13
2022-08-17T03:12:50.335Z,14.20
2022-08-17T03:15:24.164Z,13.65
2022-08-17T03:17:52.460Z,14.15
2022-08-17T03:20:20.694Z,13.98
2022-08-17T03:22:53.809Z,13.93
2022-08-17T03:25:30.211Z,14.32
2022-08-17T03:27:57.959Z,13.60
2022-08-17T03:30:26.684Z,14.20
2022-08-17T03:32:56.851Z,13.82
2022-08-17T03:35:27.339Z,13.57
2022-08-17T03:38:00.277Z,13.93
2022-08-17T03:40:58.020Z,14.40
2022-08-17T03:43:16.349Z,14.27
2022-08-17T03:46:01.623Z,13.65
2022-08-17T03:48:47.714Z,13.73
2022-08-17T03:51:38.245Z,14.30
2022-08-17T03:54:25.003Z,13.93
2022-08-17T03:57:12.608Z,14.10
2022-08-17T03:59:41.087Z,14.05
2022-08-17T04:02:16.511Z,14.13
2022-08-17T04:04:43.571Z,14.15
2022-08-17T04:07:10.689Z,15.15
2022-08-17T04:09:37.787Z,14.43
2022-08-17T04:12:05.433Z,14.25
2022-08-17T04:14:50.830Z,14.60
2022-08-17T04:17:23.260Z,14.48
2022-08-17T04:19:50.298Z,14.82
2022-08-17T04:22:31.346Z,15.10
2022-08-17T04:25:09.403Z,15.18
2022-08-17T04:27:36.783Z,15.10
2022-08-17T04:30:07.117Z,15.32
2022-08-17T04:33:04.504Z,14.93
2022-08-17T04:35:37.362Z,15.27
2022-08-17T04:38:05.086Z,15.43
2022-08-17T04:40:50.814Z,15.07
2022-08-17T04:43:21.772Z,15.77
2022-08-17T04:45:56.840Z,14.90
2022-08-17T04:48:36.327Z,15.30
2022-08-17T04:51:10.470Z,15.63
2022-08-17T04:53:42.644Z,15.33
2022-08-17T04:56:11.779Z,15.68
2022-08-17T04:58:50.542Z,15.85
2022-08-17T05:01:23.589Z,15.73
2022-08-17T05:03:54.721Z,15.48
2022-08-17T05:06:22.576Z,15.88
2022-08-17T05:08:49.724Z,15.45
2022-08-17T05:11:16.919Z,15.75
2022-08-17T05:13:44.894Z,15.70
2022-08-17T05:16:12.384Z,15.82
2022-08-17T05:18:39.687Z,15.52
2022-08-17T05:21:07.568Z,15.45
2022-08-17T05:23:42.801Z,15.65
2022-08-17T05:26:26.269Z,15.70
2022-08-17T05:29:02.554Z,15.65
2022-08-17T05:31:30.694Z,16.55
2022-08-17T05:33:58.840Z,15.60
2022-08-17T05:36:41.962Z,15.80
2022-08-17T05:39:15.659Z,16.15
2022-08-17T05:41:44.390Z,16.23
2022-08-17T05:44:11.403Z,16.33
2022-08-17T05:46:42.692Z,15.75
2022-08-17T05:49:11.141Z,15.85
2022-08-17T05:52:06.846Z,15.80
2022-08-17T05:54:48.706Z,15.95
2022-08-17T05:57:36.499Z,15.93
2022-08-17T06:00:20.139Z,15.93
2022-08-17T06:03:15.289Z,16.20
2022-08-17T06:06:07.284Z,15.57
2022-08-17T06:09:05.799Z,15.95
2022-08-17T06:11:47.111Z,15.90
2022-08-17T06:14:26.495Z,14.98
2022-08-17T06:17:00.494Z,15.32
2022-08-17T06:19:54.841Z,15.40
2022-08-17T06:22:24.924Z,15.20
2022-08-17T06:24:57.679Z,15.18
2022-08-17T06:27:38.923Z,14.80
2022-08-17T06:30:16.645Z,14.85
2022-08-17T06:32:47.481Z,15.18
2022-08-17T06:35:18.632Z,14.90
2022-08-17T06:38:10.512Z,14.80
2022-08-17T06:41:07.357Z,15.05
2022-08-17T06:43:52.528Z,14.40
2022-08-17T06:46:40.723Z,14.10
2022-08-17T06:49:17.130Z,14.10
2022-08-17T06:52:00.853Z,14.48
2022-08-17T06:54:38.432Z,14.85
2022-08-17T06:57:25.230Z,13.93
2022-08-17T07:00:18.791Z,13.90
2022-08-17T07:03:36.224Z,14.10
2022-08-17T07:06:11.294Z,14.15
2022-08-17T07:09:14.140Z,13.55
2022-08-17T07:11:59.226Z,13.88
2022-08-17T07:14:38.533Z,13.50
2022-08-17T07:17:12.226Z,14.10
2022-08-17T07:19:41.446Z,13.88
2022-08-17T07:22:22.052Z,13.43
2022-08-17T07:24:58.718Z,13.85
2022-08-17T07:27:33.089Z,13.60
2022-08-17T07:30:16.767Z,13.60
2022-08-17T07:32:51.059Z,13.63
2022-08-17T07:35:22.190Z,14.02
2022-08-17T07:37:55.785Z,13.75
2022-08-17T07:43:05.683Z,13.63
2022-08-17T07:45:53.246Z,13.48
2022-08-17T07:48:26.773Z,13.73
2022-08-17T07:53:25.952Z,13.63
2022-08-17T07:55:53.987Z,13.63
2022-08-17T07:58:23.921Z,13.45
2022-08-17T08:01:18.531Z,13.48
2022-08-17T08:03:46.874Z,13.63
2022-08-17T08:06:25.192Z,13.75
2022-08-17T08:08:56.636Z,13.23
2022-08-17T08:11:36.543Z,13.25
2022-08-17T08:14:31.308Z,13.80
2022-08-17T08:17:05.160Z,13.93
2022-08-17T08:19:33.523Z,14.10
2022-08-17T08:22:10.364Z,14.43
2022-08-17T08:24:43.245Z,14.98
2022-08-17T08:27:22.332Z,15.55
2022-08-17T08:30:16.732Z,15.30
2022-08-17T08:33:14.763Z,15.18
2022-08-17T08:36:10.405Z,15.60
2022-08-17T08:39:09.857Z,15.07
2022-08-17T08:41:45.061Z,15.23
2022-08-17T08:44:59.847Z,14.85
2022-08-17T08:47:41.701Z,15.38
2022-08-17T08:50:37.540Z,15.10
2022-08-17T08:53:30.171Z,15.13
2022-08-17T08:56:19.919Z,14.82
2022-08-17T08:59:00.326Z,15.00
2022-08-17T09:01:42.410Z,15.00
2022-08-17T09:04:29.588Z,15.10
2022-08-17T09:07:17.391Z,14.13
2022-08-17T09:09:59.298Z,14.35
2022-08-17T09:12:57.487Z,14.80
2022-08-17T09:15:40.475Z,15.00
2022-08-17T09:19:01.184Z,14.93
2022-08-17T09:21:18.087Z,15.63
2022-08-17T09:24:00.253Z,14.63
2022-08-17T09:26:39.559Z,15.30
2022-08-17T09:29:11.337Z,14.63
2022-08-17T09:31:55.217Z,15.07
2022-08-17T09:34:48.537Z,14.73
2022-08-17T09:37:22.523Z,14.70
2022-08-17T09:40:03.236Z,15.27
2022-08-17T09:43:00.988Z,15.18
2022-08-17T09:45:40.221Z,14.50
2022-08-17T09:48:28.249Z,15.32
2022-08-17T09:51:10.940Z,14.75
2022-08-17T09:53:39.681Z,14.57
2022-08-17T09:56:21.899Z,15.13
2022-08-17T09:59:11.387Z,16.20
2022-08-17T10:01:44.773Z,15.77
2022-08-17T10:04:39.816Z,15.82
2022-08-17T10:07:19.331Z,15.52
2022-08-17T10:10:14.808Z,14.85
2022-08-17T10:12:58.512Z,14.95
2022-08-17T10:15:53.329Z,14.52
2022-08-17T10:19:02.160Z,15.02
2022-08-17T10:21:50.047Z,14.40
2022-08-17T10:25:21.010Z,14.35
2022-08-17T10:27:48.994Z,14.00
2022-08-17T10:30:23.210Z,15.20
2022-08-17T10:32:55.192Z,15.52
2022-08-17T10:35:35.422Z,15.88
2022-08-17T10:38:15.660Z,15.38
2022-08-17T10:40:54.574Z,15.80
2022-08-17T10:43:57.920Z,15.75
2022-08-17T10:46:54.403Z,16.60
2022-08-17T10:49:24.228Z,15.93
2022-08-17T10:52:00.637Z,16.58
2022-08-17T10:54:46.759Z,16.58
2022-08-17T10:57:32.120Z,16.73
2022-08-17T11:00:27.096Z,16.58
2022-08-17T11:02:57.609Z,15.85
2022-08-17T11:05:43.434Z,15.50
2022-08-17T11:08:22.868Z,16.17
2022-08-17T11:11:07.139Z,15.82
2022-08-17T11:13:40.659Z,15.88
2022-08-17T11:16:41.150Z,15.50
2022-08-17T11:19:11.231Z,15.32
2022-08-17T11:21:50.572Z,15.10
2022-08-17T11:24:43.374Z,15.43
2022-08-17T11:27:21.841Z,14.98
2022-08-17T11:30:01.491Z,15.52
2022-08-17T11:32:54.360Z,15.65
2022-08-17T11:35:21.895Z,15.18
2022-08-17T11:38:20.391Z,15.55
2022-08-17T11:41:09.103Z,14.70
2022-08-17T11:43:58.249Z,14.90
2022-08-17T11:47:24.832Z,14.85
2022-08-17T11:50:36.587Z,15.10
2022-08-17T11:53:04.597Z,15.32
2022-08-17T11:55:35.852Z,15.80
2022-08-17T12:00:46.965Z,16.42
2022-08-17T12:03:42.592Z,16.00
2022-08-17T12:06:42.245Z,16.30
2022-08-17T12:09:31.532Z,16.45
2022-08-17T12:12:13.082Z,15.98
2022-08-17T12:17:40.577Z,16.05
2022-08-17T12:20:32.180Z,15.90
2022-08-17T12:23:28.394Z,15.85
2022-08-17T12:26:11.401Z,15.75
2022-08-17T12:28:44.475Z,16.48
2022-08-17T12:31:23.295Z,16.13
2022-08-17T12:33:51.894Z,16.20
2022-08-17T12:36:26.095Z,15.25
2022-08-17T12:39:13.911Z,15.23
2022-08-17T12:41:48.036Z,15.73
2022-08-17T12:44:21.308Z,15.93
2022-08-17T12:47:04.746Z,16.20
2022-08-17T12:49:41.635Z,15.70
2022-08-17T12:52:25.150Z,15.43
2022-08-17T12:55:00.040Z,15.80
2022-08-17T12:57:35.271Z,15.93
2022-08-17T13:00:20.133Z,15.63
2022-08-17T13:02:51.245Z,15.32
2022-08-17T13:05:25.205Z,16.05
2022-08-17T13:07:53.506Z,15.73
2022-08-17T13:10:28.615Z,15.25
2022-08-17T13:12:58.254Z,15.48
2022-08-17T13:15:32.188Z,15.45
2022-08-17T13:18:10.242Z,15.38
2022-08-17T13:20:37.686Z,15.18
2022-08-17T13:23:12.023Z,15.32
2022-08-17T13:25:39.763Z,15.63
2022-08-17T13:28:06.744Z,15.55
2022-08-17T13:30:34.005Z,15.60
2022-08-17T13:33:04.643Z,15.63
2022-08-17T13:35:50.230Z,15.85
2022-08-17T13:38:41.217Z,15.82
2022-08-17T13:41:08.934Z,15.50
2022-08-17T13:43:45.407Z,15.15
2022-08-17T13:46:21.095Z,15.52
2022-08-17T13:49:09.873Z,15.23
2022-08-17T13:51:44.083Z,15.27
2022-08-17T13:54:32.727Z,15.63
2022-08-17T13:57:06.742Z,15.18
2022-08-17T13:59:54.193Z,15.35
2022-08-17T14:02:27.793Z,15.30
2022-08-17T14:04:56.514Z,15.00
2022-08-17T14:07:28.590Z,14.88
2022-08-17T14:10:11.560Z,15.68
2022-08-17T14:12:41.463Z,15.65
2022-08-17T14:15:09.451Z,15.20
2022-08-17T14:17:39.076Z,15.50
2022-08-17T14:20:10.365Z,15.80
2022-08-17T14:22:40.534Z,16.15
2022-08-17T14:25:10.699Z,16.30
2022-08-17T14:27:51.736Z,15.65
2022-08-17T14:30:26.692Z,15.57
2022-08-17T14:32:58.241Z,15.43
2022-08-17T14:35:27.913Z,15.88
2022-08-17T14:37:55.452Z,15.85
2022-08-17T14:40:25.049Z,15.75
2022-08-17T14:42:53.279Z,15.45
2022-08-17T14:45:32.272Z,15.48
2022-08-17T14:48:04.322Z,15.38
2022-08-17T14:50:32.149Z,15.63
2022-08-17T14:53:03.943Z,15.80
2022-08-17T14:55:31.231Z,16.05
2022-08-17T14:57:58.484Z,15.88
2022-08-17T15:00:26.934Z,15.50
2022-08-17T15:02:58.425Z,15.65
2022-08-17T15:05:31.697Z,15.93
2022-08-17T15:08:01.183Z,15.57
2022-08-17T15:10:29.402Z,15.98
2022-08-17T15:12:56.580Z,15.50
2022-08-17T15:15:24.034Z,15.75
2022-08-17T15:17:51.742Z,15.60
2022-08-17T15:20:28.393Z,15.27
2022-08-17T15:22:57.388Z,16.08
2022-08-17T15:25:27.696Z,15.60
2022-08-17T15:27:56.177Z,16.33
2022-08-17T15:30:24.503Z,16.10
2022-08-17T15:32:55.132Z,15.75
2022-08-17T15:35:29.105Z,16.15
2022-08-17T15:37:58.675Z,16.67
2022-08-17T15:40:25.775Z,16.38
2022-08-17T15:42:53.039Z,16.60
2022-08-17T15:45:24.971Z,16.42
2022-08-17T15:47:52.841Z,16.98
2022-08-17T15:50:20.214Z,16.55
2022-08-17T15:52:47.659Z,16.15
2022-08-17T15:55:16.592Z,16.48
2022-08-17T15:57:44.936Z,16.38
2022-08-17T16:00:12.292Z,16.00
2022-08-17T16:03:15.106Z,15.55
2022-08-17T16:05:30.145Z,16.00
2022-08-17T16:07:59.931Z,16.52
2022-08-17T16:10:35.054Z,16.67
2022-08-17T16:13:04.278Z,16.70
2022-08-17T16:15:31.878Z,16.85
2022-08-17T16:17:59.438Z,16.52
2022-08-17T16:20:26.725Z,16.60
2022-08-17T16:22:55.001Z,16.52
2022-08-17T16:25:52.676Z,16.73
2022-08-17T16:28:15.917Z,16.58
2022-08-17T16:30:43.210Z,16.40
2022-08-17T16:33:11.748Z,15.88
2022-08-17T16:35:39.282Z,16.58
2022-08-17T16:38:07.204Z,16.27
2022-08-17T16:40:36.094Z,16.13
2022-08-17T16:43:07.123Z,16.02
2022-08-17T16:45:40.717Z,16.95
2022-08-17T16:48:09.357Z,16.00
2022-08-17T16:50:36.987Z,15.82
2022-08-17T16:53:10.818Z,16.25
2022-08-17T16:55:38.655Z,15.52
2022-08-17T16:58:06.878Z,16.00
2022-08-17T17:00:34.323Z,15.07
2022-08-17T17:03:18.898Z,15.35
2022-08-17T17:06:34.529Z,15.38
2022-08-17T17:09:11.305Z,15.32
2022-08-17T17:11:45.045Z,15.43
2022-08-17T17:14:19.317Z,15.73
2022-08-17T17:17:05.822Z,15.82
2022-08-17T17:19:46.583Z,16.08
2022-08-17T17:22:45.181Z,16.08
2022-08-17T17:25:27.660Z,16.30
2022-08-17T17:28:14.330Z,15.80
2022-08-17T17:31:09.195Z,15.70
2022-08-17T17:34:03.992Z,15.57
2022-08-17T17:36:42.083Z,15.43
2022-08-17T17:39:49.116Z,15.35
2022-08-17T17:42:22.472Z,16.05
2022-08-17T17:45:12.332Z,15.47
2022-08-17T17:47:39.440Z,15.93
2022-08-17T17:50:07.445Z,15.90
2022-08-17T17:52:47.597Z,15.20
2022-08-17T17:55:17.661Z,14.75
2022-08-17T17:58:21.369Z,15.90
2022-08-17T18:01:05.168Z,15.52
2022-08-17T18:04:04.704Z,14.77
2022-08-17T18:06:51.176Z,15.15
2022-08-17T18:12:12.279Z,15.07
2022-08-17T18:15:02.230Z,14.93
2022-08-17T18:17:29.956Z,15.70
2022-08-17T18:19:57.327Z,15.90
2022-08-17T18:22:25.395Z,15.40
2022-08-17T18:24:58.331Z,15.80
2022-08-17T18:27:38.259Z,15.57
2022-08-17T18:30:14.013Z,15.25
2022-08-17T18:32:46.715Z,15.52
2022-08-17T18:35:16.330Z,15.73
2022-08-17T18:37:49.218Z,15.80
2022-08-17T18:40:19.849Z,15.50
2022-08-17T18:42:59.258Z,15.50
2022-08-17T18:45:41.329Z,15.60
2022-08-17T18:48:58.902Z,15.45
2022-08-17T18:51:42.890Z,15.48
2022-08-17T18:54:20.967Z,15.65
2022-08-17T18:56:56.691Z,15.38
2022-08-17T18:59:31.842Z,15.45
2022-08-17T19:02:27.254Z,15.23
2022-08-17T19:05:25.511Z,15.43
2022-08-17T19:07:52.700Z,15.55
2022-08-17T19:10:45.841Z,15.45
2022-08-17T19:13:24.944Z,15.02
2022-08-17T19:16:18.041Z,15.10
2022-08-17T19:19:02.564Z,15.55
2022-08-17T19:21:52.562Z,15.13
2022-08-17T19:24:23.322Z,15.60
2022-08-17T19:26:57.574Z,15.70
2022-08-17T19:32:13.004Z,14.90
2022-08-17T19:34:44.658Z,15.60
2022-08-17T19:37:42.407Z,15.07
2022-08-17T19:40:51.066Z,15.98
2022-08-17T19:43:38.616Z,15.13
2022-08-17T19:46:26.903Z,15.35
2022-08-17T19:49:15.738Z,15.02
2022-08-17T19:51:59.037Z,15.18
2022-08-17T19:54:47.464Z,15.63
2022-08-17T19:57:42.581Z,15.25
2022-08-17T20:00:16.840Z,15.25
2022-08-17T20:05:17.800Z,14.88
2022-08-17T20:08:19.265Z,14.60
2022-08-17T20:10:54.342Z,15.13
2022-08-17T20:13:33.131Z,15.68
2022-08-17T20:16:02.545Z,14.88
2022-08-17T20:18:54.992Z,15.05
2022-08-17T20:21:40.455Z,14.60
2022-08-17T20:24:23.415Z,14.65
2022-08-17T20:27:01.165Z,14.50
2022-08-17T20:29:39.836Z,14.52
2022-08-17T20:32:22.872Z,14.25
2022-08-17T20:35:05.573Z,14.20
2022-08-17T20:37:35.121Z,14.15
2022-08-17T20:40:05.798Z,14.48
2022-08-17T20:42:34.116Z,14.70
2022-08-17T20:45:20.698Z,14.45
2022-08-17T20:51:18.389Z,15.32
2022-08-17T20:53:48.440Z,14.73
2022-08-17T20:56:43.553Z,14.70
2022-08-17T20:59:25.869Z,14.55
2022-08-17T21:02:12.448Z,14.55
2022-08-17T21:04:48.735Z,14.90
2022-08-17T21:07:43.372Z,14.63
2022-08-17T21:10:26.027Z,15.00
2022-08-17T21:12:53.045Z,15.30
2022-08-17T21:15:41.987Z,14.73
2022-08-17T21:18:38.909Z,15.63
2022-08-17T21:21:53.594Z,15.38
2022-08-17T21:24:42.032Z,15.23
2022-08-17T21:27:34.092Z,18.13
2022-08-17T21:30:09.485Z,19.67
2022-08-17T21:32:41.863Z,20.77
2022-08-17T21:35:38.862Z,21.60
2022-08-17T21:38:14.650Z,21.52
2022-08-17T21:40:45.581Z,21.40
2022-08-17T21:43:25.264Z,21.83
2022-08-17T21:45:57.723Z,20.83
2022-08-17T21:48:27.552Z,20.77
2022-08-17T21:51:12.336Z,21.15
2022-08-17T21:53:42.382Z,20.42
2022-08-17T21:56:12.074Z,22.27
2022-08-17T21:58:45.416Z,22.35
2022-08-17T22:01:24.819Z,22.80
2022-08-17T22:03:59.647Z,23.88
2022-08-17T22:06:52.592Z,24.50
2022-08-17T22:09:40.624Z,25.63
2022-08-17T22:12:11.400Z,26.63
2022-08-17T22:14:56.315Z,26.42
2022-08-17T22:17:35.696Z,28.08
2022-08-17T22:20:16.967Z,27.27
2022-08-17T22:23:08.324Z,27.75
2022-08-17T22:25:56.334Z,27.88
2022-08-17T22:28:57.664Z,28.20
2022-08-17T22:31:28.152Z,28.73
2022-08-17T22:33:59.922Z,28.90
2022-08-17T22:36:30.803Z,29.45
2022-08-17T22:39:05.125Z,28.92
2022-08-17T22:41:50.668Z,30.08
2022-08-17T22:44:20.542Z,30.10
2022-08-17T22:47:16.424Z,30.60
2022-08-17T22:49:57.948Z,31.00
2022-08-17T22:52:56.922Z,30.80
2022-08-17T22:55:43.531Z,31.02
2022-08-17T22:58:36.351Z,32.53
2022-08-17T23:01:28.330Z,30.95
2022-08-17T23:04:05.023Z,32.50
2022-08-17T23:06:34.955Z,32.13
2022-08-17T23:09:04.454Z,34.15
2022-08-17T23:11:49.511Z,33.40
2022-08-17T23:14:19.928Z,32.75
2022-08-17T23:16:49.089Z,34.38
2022-08-17T23:19:20.098Z,33.90
2022-08-17T23:21:53.867Z,34.10
2022-08-17T23:24:24.442Z,33.28
2022-08-17T23:26:51.764Z,33.95
2022-08-17T23:29:21.659Z,34.92
2022-08-17T23:31:51.132Z,35.80
2022-08-17T23:34:19.100Z,36.65
2022-08-17T23:36:52.423Z,36.03
2022-08-17T23:39:27.587Z,36.22
2022-08-17T23:41:57.907Z,36.78
2022-08-17T23:44:25.707Z,36.53
2022-08-17T23:46:54.171Z,37.17
2022-08-17T23:49:21.294Z,37.28
2022-08-17T23:51:49.337Z,38.15
2022-08-17T23:54:27.112Z,36.55
2022-08-17T23:56:54.211Z,37.05
2022-08-17T23:59:22.854Z,38.28
